createdAt,value
2018-01-21T00:01:17.214Z,31.87
2018-01-21T00:03:45.634Z,27.62
2018-01-21T00:06:13.246Z,25.80
2018-01-21T00:08:40.861Z,28.58
2018-01-21T00:11:09.279Z,26.35
2018-01-21T00:13:36.889Z,32.50
2018-01-21T00:16:04.505Z,28.83
2018-01-21T00:18:32.921Z,27.95
2018-01-21T00:21:00.542Z,29.58
2018-01-21T00:23:28.164Z,25.25
2018-01-21T00:25:55.806Z,28.73
2018-01-21T00:28:24.185Z,27.42
2018-01-21T00:30:51.811Z,23.38
2018-01-21T00:33:19.552Z,28.10
2018-01-21T00:35:47.937Z,26.70
2018-01-21T00:38:15.545Z,25.10
2018-01-21T00:40:43.192Z,31.90
2018-01-21T00:43:11.569Z,25.02
2018-01-21T00:45:39.196Z,27.50
2018-01-21T00:48:06.841Z,30.42
2018-01-21T00:50:35.222Z,30.75
2018-01-21T00:53:03.608Z,28.40
2018-01-21T00:55:31.260Z,26.92
2018-01-21T00:57:58.877Z,29.15
2018-01-21T01:00:26.485Z,27.52
2018-01-21T01:02:54.128Z,31.15
2018-01-21T01:05:21.744Z,31.23
2018-01-21T01:07:49.361Z,27.92
2018-01-21T01:10:17.777Z,31.90
2018-01-21T01:12:45.392Z,26.12
2018-01-21T01:15:13.007Z,31.92
2018-01-21T01:17:41.460Z,25.08
2018-01-21T01:20:09.077Z,27.87
2018-01-21T01:22:37.448Z,25.77
2018-01-21T01:25:05.866Z,27.50
2018-01-21T01:27:33.480Z,27.92
2018-01-21T01:30:01.093Z,24.70
2018-01-21T01:32:32.373Z,23.90
2018-01-21T01:34:59.985Z,30.52
2018-01-21T01:37:27.603Z,25.23
2018-01-21T01:39:56.017Z,23.60
2018-01-21T01:42:23.642Z,27.77
2018-01-21T01:44:51.264Z,23.58
2018-01-21T01:47:18.917Z,23.50
2018-01-21T01:49:47.305Z,24.50
2018-01-21T01:52:15.681Z,21.85
2018-01-21T01:54:43.336Z,20.15
2018-01-21T01:57:10.957Z,30.55
2018-01-21T01:59:39.336Z,27.40
2018-01-21T02:02:07.750Z,24.33
2018-01-21T02:04:35.368Z,24.67
2018-01-21T02:07:02.995Z,23.70
2018-01-21T02:09:30.648Z,20.65
2018-01-21T02:11:59.041Z,24.48
2018-01-21T02:14:27.421Z,24.42
2018-01-21T02:16:55.072Z,30.08
2018-01-21T02:19:22.684Z,27.33
2018-01-21T02:21:51.065Z,22.77
2018-01-21T02:24:18.713Z,24.80
2018-01-21T02:26:46.328Z,23.17
2018-01-21T02:29:14.713Z,21.62
2018-01-21T02:31:43.126Z,20.75
2018-01-21T02:34:10.753Z,24.67
2018-01-21T02:36:38.390Z,24.48
2018-01-21T02:39:06.044Z,26.83
2018-01-21T02:41:34.421Z,25.30
2018-01-21T02:44:02.817Z,22.98
2018-01-21T02:46:31.237Z,22.83
2018-01-21T02:48:58.857Z,27.37
2018-01-21T02:51:26.477Z,22.90
2018-01-21T02:53:54.126Z,24.87
2018-01-21T02:56:22.579Z,25.17
2018-01-21T02:58:50.201Z,21.42
2018-01-21T03:01:18.608Z,25.12
2018-01-21T03:03:46.226Z,25.55
2018-01-21T03:06:13.850Z,22.95
2018-01-21T03:08:42.470Z,23.33
2018-01-21T03:11:10.085Z,23.92
2018-01-21T03:13:37.705Z,25.88
2018-01-21T03:16:05.353Z,27.23
2018-01-21T03:18:33.001Z,19.42
2018-01-21T03:21:00.621Z,26.98
2018-01-21T03:23:28.273Z,23.73
2018-01-21T03:25:56.656Z,26.92
2018-01-21T03:28:24.272Z,26.50
2018-01-21T03:30:51.926Z,23.58
2018-01-21T03:33:20.308Z,26.90
2018-01-21T03:35:48.688Z,22.20
2018-01-21T03:38:16.346Z,22.85
2018-01-21T03:40:43.961Z,27.27
2018-01-21T03:43:11.592Z,21.15
2018-01-21T03:45:39.241Z,26.70
2018-01-21T03:48:06.852Z,28.92
2018-01-21T03:50:34.601Z,23.23
2018-01-21T03:53:02.257Z,24.10
2018-01-21T03:55:29.881Z,21.25
2018-01-21T03:57:57.497Z,27.87
2018-01-21T04:00:25.136Z,27.75
2018-01-21T04:02:52.749Z,25.50
2018-01-21T04:05:20.373Z,28.75
2018-01-21T04:07:48.017Z,21.30
2018-01-21T04:10:15.638Z,23.75
2018-01-21T04:12:44.030Z,19.87
2018-01-21T04:15:12.450Z,21.23
2018-01-21T04:17:40.073Z,19.70
2018-01-21T04:20:07.682Z,22.02
2018-01-21T04:22:36.101Z,24.00
2018-01-21T04:25:03.721Z,23.02
2018-01-21T04:27:31.341Z,23.25
2018-01-21T04:29:58.992Z,18.95
2018-01-21T04:32:27.376Z,26.33
2018-01-21T04:34:55.763Z,24.60
2018-01-21T04:37:23.405Z,30.85
2018-01-21T04:39:51.035Z,23.75
2018-01-21T04:42:18.753Z,25.92
2018-01-21T04:44:46.405Z,23.50
2018-01-21T04:47:14.022Z,25.42
2018-01-21T04:49:41.976Z,21.70
2018-01-21T04:52:09.626Z,26.85
2018-01-21T04:54:37.241Z,22.52
2018-01-21T04:57:04.866Z,24.80
2018-01-21T04:59:32.513Z,23.48
2018-01-21T05:02:00.152Z,26.15
2018-01-21T05:04:27.768Z,20.48
2018-01-21T05:06:56.190Z,21.25
2018-01-21T05:09:23.808Z,20.98
2018-01-21T05:11:51.421Z,20.92
2018-01-21T05:14:19.065Z,26.35
2018-01-21T05:16:46.685Z,24.25
2018-01-21T05:19:14.296Z,24.95
2018-01-21T05:21:41.956Z,25.33
2018-01-21T05:24:09.581Z,22.90
2018-01-21T05:26:37.969Z,27.65
2018-01-21T05:29:05.635Z,26.12
2018-01-21T05:31:33.254Z,27.15
2018-01-21T05:34:00.877Z,26.05
2018-01-21T05:36:28.530Z,24.52
2018-01-21T05:38:56.157Z,26.20
2018-01-21T05:41:23.775Z,31.12
2018-01-21T05:43:51.443Z,27.25
2018-01-21T05:46:19.061Z,26.15
2018-01-21T05:48:47.445Z,28.70
2018-01-21T05:51:15.869Z,28.58
2018-01-21T05:53:43.485Z,31.05
2018-01-21T05:56:11.113Z,22.33
2018-01-21T05:58:38.771Z,26.37
2018-01-21T06:01:07.151Z,24.63
2018-01-21T06:03:35.533Z,25.05
2018-01-21T06:06:03.185Z,28.90
2018-01-21T06:08:30.797Z,26.87
2018-01-21T06:10:59.181Z,21.05
2018-01-21T06:13:27.823Z,22.15
2018-01-21T06:15:55.438Z,20.15
2018-01-21T06:18:23.049Z,21.20
2018-01-21T06:20:50.698Z,23.05
2018-01-21T06:23:18.312Z,23.15
2018-01-21T06:25:45.945Z,27.30
2018-01-21T06:28:13.593Z,22.83
2018-01-21T06:30:41.240Z,21.50
2018-01-21T06:33:08.856Z,21.20
2018-01-21T06:35:36.502Z,24.70
2018-01-21T06:38:04.121Z,24.08
2018-01-21T06:40:32.498Z,21.37
2018-01-21T06:43:00.153Z,28.95
2018-01-21T06:45:27.765Z,26.33
2018-01-21T06:47:56.140Z,25.40
2018-01-21T06:50:23.789Z,20.37
2018-01-21T06:52:51.404Z,24.37
2018-01-21T06:55:19.785Z,25.42
2018-01-21T06:57:47.438Z,23.70
2018-01-21T07:00:15.062Z,28.10
2018-01-21T07:02:42.681Z,22.80
2018-01-21T07:05:10.318Z,26.42
2018-01-21T07:07:37.932Z,29.65
2018-01-21T07:10:05.550Z,24.42
2018-01-21T07:12:33.975Z,29.20
2018-01-21T07:15:01.594Z,28.62
2018-01-21T07:17:29.209Z,30.23
2018-01-21T07:19:56.852Z,26.45
2018-01-21T07:22:24.539Z,27.52
2018-01-21T07:24:52.941Z,25.48
2018-01-21T07:27:20.591Z,26.08
2018-01-21T07:29:48.355Z,23.30
2018-01-21T07:32:16.003Z,25.00
2018-01-21T07:34:43.649Z,29.05
2018-01-21T07:37:11.337Z,23.50
2018-01-21T07:39:38.958Z,23.12
2018-01-21T07:42:06.613Z,24.30
2018-01-21T07:44:34.232Z,24.17
2018-01-21T07:47:02.610Z,26.90
2018-01-21T07:49:30.333Z,24.77
2018-01-21T07:51:57.958Z,28.75
2018-01-21T07:54:26.337Z,29.40
2018-01-21T07:56:54.021Z,26.50
2018-01-21T07:59:21.637Z,27.85
2018-01-21T08:01:49.256Z,28.65
2018-01-21T08:04:16.921Z,26.85
2018-01-21T08:06:44.583Z,27.90
2018-01-21T08:09:12.198Z,32.28
2018-01-21T08:11:40.612Z,26.83
2018-01-21T08:14:08.234Z,29.45
2018-01-21T08:16:35.888Z,31.12
2018-01-21T08:19:03.705Z,24.37
2018-01-21T08:21:31.321Z,28.70
2018-01-21T08:23:58.941Z,28.40
2018-01-21T08:26:26.639Z,30.37
2018-01-21T08:28:54.691Z,30.35
2018-01-21T08:31:22.297Z,28.38
2018-01-21T08:33:56.301Z,30.23
2018-01-21T08:36:29.508Z,29.40
2018-01-21T08:39:02.817Z,32.20
2018-01-21T08:41:45.305Z,33.90
2018-01-21T08:44:12.949Z,31.00
2018-01-21T08:46:40.768Z,34.22
2018-01-21T08:49:08.413Z,34.13
2018-01-21T08:51:36.057Z,29.90
2018-01-21T08:54:04.434Z,31.00
2018-01-21T08:56:32.059Z,30.77
2018-01-21T08:58:59.696Z,32.97
2018-01-21T09:01:37.204Z,34.95
2018-01-21T09:04:05.288Z,33.28
2018-01-21T09:06:32.928Z,32.38
2018-01-21T09:09:01.902Z,35.22
2018-01-21T09:11:29.548Z,37.53
2018-01-21T09:13:58.872Z,37.25
2018-01-21T09:16:26.617Z,40.22
2018-01-21T09:18:55.421Z,39.50
2018-01-21T09:21:23.308Z,33.97
2018-01-21T09:23:50.971Z,29.48
2018-01-21T09:26:18.725Z,27.98
2018-01-21T09:28:48.061Z,37.45
2018-01-21T09:31:15.826Z,28.70
2018-01-21T09:33:43.540Z,33.20
2018-01-21T09:36:11.926Z,32.53
2018-01-21T09:38:41.720Z,30.48
2018-01-21T09:41:10.129Z,34.75
2018-01-21T09:43:39.388Z,29.02
2018-01-21T09:46:07.057Z,35.83
2018-01-21T09:48:35.581Z,29.65
2018-01-21T09:51:04.964Z,38.53
2018-01-21T09:53:33.361Z,34.05
2018-01-21T09:56:02.795Z,33.03
2018-01-21T09:58:31.859Z,32.08
2018-01-21T10:00:59.481Z,35.60
2018-01-21T10:03:27.422Z,37.00
2018-01-21T10:05:56.387Z,39.22
2018-01-21T10:08:24.624Z,37.67
2018-01-21T10:10:53.067Z,40.15
2018-01-21T10:13:24.074Z,37.38
2018-01-21T10:15:52.489Z,43.17
2018-01-21T10:18:20.152Z,46.67
2018-01-21T10:20:47.766Z,41.55
2018-01-21T10:23:15.412Z,55.47
2018-01-21T10:25:43.117Z,40.70
2018-01-21T10:28:10.858Z,51.72
2018-01-21T10:30:38.575Z,43.92
2018-01-21T10:33:06.277Z,48.92
2018-01-21T10:35:34.681Z,47.33
2018-01-21T10:38:03.115Z,47.17
2018-01-21T10:40:30.767Z,47.45
2018-01-21T10:42:58.385Z,42.47
2018-01-21T10:45:26.035Z,53.97
2018-01-21T10:47:53.698Z,53.67
2018-01-21T10:50:21.346Z,54.90
2018-01-21T10:52:49.043Z,54.38
2018-01-21T10:55:16.686Z,55.12
2018-01-21T10:57:44.333Z,66.78
2018-01-21T11:00:12.033Z,67.15
2018-01-21T11:02:40.438Z,59.08
2018-01-21T11:05:08.816Z,65.70
2018-01-21T11:07:36.456Z,65.35
2018-01-21T11:10:04.388Z,62.78
2018-01-21T11:12:32.085Z,59.10
2018-01-21T11:14:59.730Z,71.12
2018-01-21T11:17:28.109Z,62.58
2018-01-21T11:19:55.720Z,60.63
2018-01-21T11:22:23.372Z,65.87
2018-01-21T11:24:51.754Z,66.07
2018-01-21T11:27:19.364Z,61.78
2018-01-21T11:29:47.063Z,57.42
2018-01-21T11:32:15.191Z,58.20
2018-01-21T11:34:43.573Z,51.33
2018-01-21T11:37:11.252Z,56.65
2018-01-21T11:39:38.876Z,56.75
2018-01-21T11:42:06.497Z,64.30
2018-01-21T11:44:34.421Z,52.15
2018-01-21T11:47:02.943Z,58.00
2018-01-21T11:49:30.562Z,52.17
2018-01-21T11:51:59.246Z,48.63
2018-01-21T11:54:26.866Z,57.03
2018-01-21T11:56:58.338Z,53.38
2018-01-21T11:59:26.386Z,61.65
2018-01-21T12:01:54.781Z,61.22
2018-01-21T12:04:23.161Z,56.47
2018-01-21T12:06:51.574Z,59.03
2018-01-21T12:09:19.196Z,54.60
2018-01-21T12:11:46.814Z,69.70
2018-01-21T12:14:15.239Z,54.38
2018-01-21T12:16:42.856Z,59.30
2018-01-21T12:19:10.468Z,56.70
2018-01-21T12:21:38.128Z,66.25
2018-01-21T12:24:06.510Z,58.38
2018-01-21T12:26:34.893Z,57.83
2018-01-21T12:29:03.338Z,68.70
2018-01-21T12:31:30.987Z,68.55
2018-01-21T12:33:59.388Z,60.97
2018-01-21T12:36:27.100Z,56.63
2018-01-21T12:38:54.739Z,57.83
2018-01-21T12:41:22.353Z,64.45
2018-01-21T12:43:50.333Z,65.47
2018-01-21T12:46:17.954Z,70.00
2018-01-21T12:48:46.065Z,62.25
2018-01-21T12:51:13.754Z,60.88
2018-01-21T12:53:41.405Z,61.37
2018-01-21T12:56:09.029Z,72.55
2018-01-21T12:58:36.681Z,69.82
2018-01-21T13:01:04.293Z,69.80
2018-01-21T13:03:32.678Z,64.90
2018-01-21T13:06:00.325Z,70.10
2018-01-21T13:08:27.941Z,69.62
2018-01-21T13:10:55.567Z,64.53
2018-01-21T13:13:23.266Z,59.15
2018-01-21T13:15:50.877Z,68.62
2018-01-21T13:18:18.488Z,65.18
2018-01-21T13:20:46.137Z,67.53
2018-01-21T13:23:13.745Z,64.80
2018-01-21T13:25:41.455Z,70.65
2018-01-21T13:28:10.102Z,67.20
2018-01-21T13:30:37.750Z,70.12
2018-01-21T13:33:05.384Z,58.17
2018-01-21T13:35:33.084Z,63.85
2018-01-21T13:38:01.462Z,59.75
2018-01-21T13:40:29.856Z,66.53
2018-01-21T13:42:57.496Z,77.47
2018-01-21T13:45:25.135Z,65.32
2018-01-21T13:47:52.749Z,68.30
2018-01-21T13:50:20.437Z,61.72
2018-01-21T13:52:48.044Z,56.72
2018-01-21T13:55:16.421Z,63.80
2018-01-21T13:57:44.838Z,66.32
2018-01-21T14:00:12.456Z,65.30
2018-01-21T14:02:40.065Z,69.78
2018-01-21T14:05:08.497Z,70.30
2018-01-21T14:07:36.139Z,61.03
2018-01-21T14:10:04.537Z,75.95
2018-01-21T14:12:33.442Z,70.25
2018-01-21T14:15:02.610Z,67.40
2018-01-21T14:17:30.357Z,65.72
2018-01-21T14:19:58.085Z,79.57
2018-01-21T14:22:26.465Z,64.10
2018-01-21T14:24:54.102Z,69.03
2018-01-21T14:27:21.765Z,75.47
2018-01-21T14:29:49.435Z,66.18
2018-01-21T14:32:28.188Z,61.60
2018-01-21T14:34:56.817Z,65.05
2018-01-21T14:37:24.464Z,66.80
2018-01-21T14:39:52.082Z,68.93
2018-01-21T14:42:20.464Z,61.37
2018-01-21T14:44:48.104Z,65.43
2018-01-21T14:47:15.723Z,64.12
2018-01-21T14:49:44.190Z,58.72
2018-01-21T14:52:11.845Z,61.25
2018-01-21T14:54:39.451Z,55.15
2018-01-21T14:57:07.071Z,62.67
2018-01-21T14:59:34.712Z,50.90
2018-01-21T15:02:03.092Z,59.60
2018-01-21T15:04:30.696Z,62.60
2018-01-21T15:06:58.336Z,61.13
2018-01-21T15:09:25.953Z,61.03
2018-01-21T15:11:53.561Z,59.13
2018-01-21T15:14:21.212Z,52.40
2018-01-21T15:16:48.873Z,68.07
2018-01-21T15:19:16.492Z,61.10
2018-01-21T15:21:44.142Z,64.03
2018-01-21T15:24:11.760Z,53.22
2018-01-21T15:26:39.372Z,60.33
2018-01-21T15:29:07.013Z,63.50
2018-01-21T15:31:34.802Z,65.68
2018-01-21T15:34:02.425Z,63.47
2018-01-21T15:36:30.078Z,57.45
2018-01-21T15:38:57.692Z,62.05
2018-01-21T15:41:28.329Z,69.60
2018-01-21T15:43:56.019Z,69.70
2018-01-21T15:46:23.629Z,80.80
2018-01-21T15:48:51.240Z,67.37
2018-01-21T15:51:18.965Z,82.95
2018-01-21T15:53:47.409Z,86.68
2018-01-21T15:56:15.053Z,86.55
2018-01-21T15:58:42.699Z,87.90
2018-01-21T16:01:11.074Z,86.90
2018-01-21T16:03:38.723Z,86.55
2018-01-21T16:06:06.365Z,71.40
2018-01-21T16:08:33.977Z,71.65
2018-01-21T16:11:01.589Z,75.60
2018-01-21T16:13:30.038Z,79.62
2018-01-21T16:15:57.651Z,87.68
2018-01-21T16:18:26.033Z,84.05
2018-01-21T16:20:53.758Z,83.43
2018-01-21T16:23:21.372Z,94.45
2018-01-21T16:25:48.982Z,85.70
2018-01-21T16:28:16.624Z,90.78
2018-01-21T16:30:44.237Z,89.20
2018-01-21T16:33:11.845Z,96.37
2018-01-21T16:35:39.493Z,72.18
2018-01-21T16:38:18.897Z,88.87
2018-01-21T16:40:46.536Z,92.07
2018-01-21T16:43:14.228Z,90.40
2018-01-21T16:45:43.764Z,86.85
2018-01-21T16:48:13.113Z,73.82
2018-01-21T16:50:41.489Z,77.40
2018-01-21T16:53:09.133Z,80.62
2018-01-21T16:55:36.785Z,91.35
2018-01-21T16:58:05.197Z,102.30
2018-01-21T17:00:32.821Z,90.32
2018-01-21T17:03:01.242Z,82.82
2018-01-21T17:05:29.268Z,79.47
2018-01-21T17:07:56.885Z,73.72
2018-01-21T17:10:24.533Z,90.85
2018-01-21T17:12:52.143Z,94.95
2018-01-21T17:15:19.817Z,96.53
2018-01-21T17:17:47.445Z,94.60
2018-01-21T17:20:17.168Z,94.90
2018-01-21T17:22:44.784Z,92.95
2018-01-21T17:25:12.420Z,97.70
2018-01-21T17:27:40.038Z,98.68
2018-01-21T17:30:07.677Z,91.57
2018-01-21T17:32:36.082Z,89.80
2018-01-21T17:35:03.803Z,80.35
2018-01-21T17:37:31.421Z,72.60
2018-01-21T17:39:59.833Z,94.25
2018-01-21T17:42:27.489Z,72.10
2018-01-21T17:44:55.873Z,87.47
2018-01-21T17:47:24.329Z,69.15
2018-01-21T17:49:51.944Z,75.20
2018-01-21T17:52:19.589Z,74.32
2018-01-21T17:54:47.335Z,89.10
2018-01-21T17:57:14.952Z,107.40
2018-01-21T17:59:42.578Z,98.28
2018-01-21T18:02:10.261Z,82.68
2018-01-21T18:04:37.880Z,94.03
2018-01-21T18:07:05.502Z,114.28
2018-01-21T18:09:33.148Z,94.93
2018-01-21T18:12:01.545Z,103.22
2018-01-21T18:14:29.930Z,101.53
2018-01-21T18:16:57.588Z,97.07
2018-01-21T18:19:25.237Z,102.15
2018-01-21T18:21:52.861Z,77.10
2018-01-21T18:24:21.277Z,99.53
2018-01-21T18:26:48.893Z,79.82
2018-01-21T18:29:16.928Z,82.60
2018-01-21T18:31:44.580Z,77.82
2018-01-21T18:34:12.965Z,75.37
2018-01-21T18:36:41.387Z,70.10
2018-01-21T18:39:09.037Z,76.47
2018-01-21T18:41:37.429Z,94.28
2018-01-21T18:44:05.809Z,71.75
2018-01-21T18:46:34.221Z,78.95
2018-01-21T18:49:02.597Z,74.60
2018-01-21T18:51:31.048Z,89.60
2018-01-21T18:53:58.697Z,85.47
2018-01-21T18:56:26.310Z,76.75
2018-01-21T18:58:53.925Z,79.55
2018-01-21T19:01:21.577Z,80.32
2018-01-21T19:03:49.188Z,88.85
2018-01-21T19:06:17.037Z,75.25
2018-01-21T19:08:45.499Z,78.10
2018-01-21T19:11:13.202Z,69.12
2018-01-21T19:13:40.859Z,81.78
2018-01-21T19:16:09.304Z,103.57
2018-01-21T19:18:36.934Z,84.45
2018-01-21T19:21:04.558Z,88.00
2018-01-21T19:23:32.215Z,73.65
2018-01-21T19:25:59.841Z,100.00
2018-01-21T19:28:27.462Z,109.55
2018-01-21T19:30:55.889Z,99.03
2018-01-21T19:33:23.504Z,98.05
2018-01-21T19:35:51.128Z,76.45
2018-01-21T19:38:24.506Z,73.57
2018-01-21T19:40:52.909Z,94.30
2018-01-21T19:43:37.223Z,95.57
2018-01-21T19:46:04.828Z,74.97
2018-01-21T19:48:33.209Z,91.15
2018-01-21T19:51:00.861Z,99.62
2018-01-21T19:53:28.480Z,107.63
2018-01-21T19:55:56.865Z,114.50
2018-01-21T19:58:25.284Z,108.30
2018-01-21T20:00:52.905Z,120.97
2018-01-21T20:03:20.520Z,92.18
2018-01-21T20:05:48.172Z,80.32
2018-01-21T20:08:16.572Z,111.85
2018-01-21T20:10:44.949Z,116.00
2018-01-21T20:13:13.465Z,110.28
2018-01-21T20:15:41.849Z,100.18
2018-01-21T20:18:10.234Z,85.12
2018-01-21T20:20:37.893Z,94.13
2018-01-21T20:23:05.505Z,76.37
2018-01-21T20:25:33.113Z,74.28
2018-01-21T20:28:00.765Z,94.70
2018-01-21T20:30:28.385Z,86.25
2018-01-21T20:32:57.178Z,94.28
2018-01-21T20:35:24.832Z,101.62
2018-01-21T20:37:52.466Z,71.68
2018-01-21T20:40:21.084Z,79.78
2018-01-21T20:42:48.803Z,79.20
2018-01-21T20:45:16.442Z,88.20
2018-01-21T20:47:44.138Z,112.60
2018-01-21T20:50:11.782Z,85.62
2018-01-21T20:52:45.062Z,90.82
2018-01-21T20:55:13.505Z,138.10
2018-01-21T20:57:41.135Z,238.98
2018-01-21T21:00:09.531Z,262.42
2018-01-21T21:02:38.210Z,290.35
2018-01-21T21:05:05.850Z,249.70
2018-01-21T21:07:33.474Z,303.98
2018-01-21T21:10:01.137Z,316.33
2018-01-21T21:12:29.538Z,153.32
2018-01-21T21:14:57.931Z,280.00
2018-01-21T21:17:26.353Z,306.83
2018-01-21T21:19:53.985Z,274.70
2018-01-21T21:22:22.598Z,169.60
2018-01-21T21:24:51.025Z,261.67
2018-01-21T21:27:18.649Z,98.32
2018-01-21T21:29:46.270Z,76.87
2018-01-21T21:32:13.918Z,86.63
2018-01-21T21:34:41.552Z,232.00
2018-01-21T21:37:09.177Z,181.07
2018-01-21T21:39:36.840Z,212.02
2018-01-21T21:42:05.260Z,183.27
2018-01-21T21:44:32.889Z,219.65
2018-01-21T21:47:01.321Z,91.85
2018-01-21T21:49:28.945Z,187.07
2018-01-21T21:51:56.571Z,159.63
2018-01-21T21:54:24.229Z,137.40
2018-01-21T21:56:51.901Z,159.07
2018-01-21T21:59:19.572Z,155.07
2018-01-21T22:01:48.053Z,148.93
2018-01-21T22:04:16.451Z,139.00
2018-01-21T22:06:44.858Z,85.70
2018-01-21T22:09:12.517Z,82.20
2018-01-21T22:11:40.916Z,100.07
2018-01-21T22:14:08.545Z,82.20
2018-01-21T22:16:36.488Z,80.75
2018-01-21T22:19:04.109Z,77.90
2018-01-21T22:21:31.797Z,81.28
2018-01-21T22:23:59.441Z,80.18
2018-01-21T22:26:27.897Z,85.53
2018-01-21T22:28:55.522Z,76.57
2018-01-21T22:31:23.183Z,93.22
2018-01-21T22:33:50.810Z,70.65
2018-01-21T22:36:19.201Z,70.95
2018-01-21T22:38:47.626Z,63.60
2018-01-21T22:41:15.251Z,72.10
2018-01-21T22:43:43.641Z,69.97
2018-01-21T22:46:12.129Z,68.53
2018-01-21T22:48:39.749Z,69.30
2018-01-21T22:51:07.409Z,73.65
2018-01-21T22:53:35.062Z,74.68
2018-01-21T22:56:03.447Z,63.63
2018-01-21T22:58:31.069Z,67.72
2018-01-21T23:00:58.730Z,57.03
2018-01-21T23:03:26.348Z,73.37
2018-01-21T23:05:53.982Z,69.68
2018-01-21T23:08:21.641Z,58.47
2018-01-21T23:10:50.039Z,64.00
2018-01-21T23:13:17.691Z,63.30
2018-01-21T23:15:45.344Z,58.78
2018-01-21T23:18:12.970Z,61.08
2018-01-21T23:21:01.519Z,63.22
2018-01-21T23:23:29.905Z,58.28
2018-01-21T23:25:58.292Z,68.93
2018-01-21T23:28:25.980Z,76.80
2018-01-21T23:30:54.369Z,58.47
2018-01-21T23:33:22.755Z,60.58
2018-01-21T23:35:51.181Z,56.88
2018-01-21T23:38:18.814Z,66.53
2018-01-21T23:40:47.208Z,64.78
2018-01-21T23:43:15.639Z,58.17
2018-01-21T23:45:43.266Z,70.53
2018-01-21T23:48:10.897Z,59.97
2018-01-21T23:50:38.563Z,71.22
2018-01-21T23:53:06.185Z,65.40
2018-01-21T23:55:33.810Z,68.40
2018-01-21T23:58:01.458Z,81.75
